createdAt,value
2023-04-11T00:02:02.764Z,100486.31
2023-04-11T00:04:30.665Z,100486.91
2023-04-11T00:06:58.294Z,100486.19
2023-04-11T00:09:25.727Z,100494.03
2023-04-11T00:11:53.334Z,100490.41
2023-04-11T00:14:20.728Z,100497.25
2023-04-11T00:16:49.955Z,100486.59
2023-04-11T00:19:17.740Z,100487.59
2023-04-11T00:21:45.280Z,100487.66
2023-04-11T00:24:12.847Z,100483.44
2023-04-11T00:26:40.559Z,100486.19
2023-04-11T00:29:08.128Z,100482.63
2023-04-11T00:31:35.669Z,100484.84
2023-04-11T00:34:03.450Z,100487.53
2023-04-11T00:36:31.965Z,100486.66
2023-04-11T00:39:01.404Z,100481.47
2023-04-11T00:41:33.845Z,100487.53
2023-04-11T00:44:03.852Z,100491.13
2023-04-11T00:46:31.977Z,100473.75
2023-04-11T00:48:59.828Z,100488.50
2023-04-11T00:51:28.691Z,100492.22
2023-04-11T00:53:56.291Z,100482.53
2023-04-11T00:56:24.146Z,100494.03
2023-04-11T00:58:51.832Z,100492.44
2023-04-11T01:01:20.082Z,100485.56
2023-04-11T01:03:48.457Z,100482.97
2023-04-11T01:06:18.985Z,100470.91
2023-04-11T01:08:47.726Z,100480.47
2023-04-11T01:11:18.244Z,100482.22
2023-04-11T01:13:46.969Z,100478.63
2023-04-11T01:16:15.391Z,100481.34
2023-04-11T01:18:43.028Z,100487.31
2023-04-11T01:21:10.816Z,100488.03
2023-04-11T01:23:38.331Z,100478.63
2023-04-11T01:26:06.435Z,100484.66
2023-04-11T01:28:34.061Z,100485.69
2023-04-11T01:31:03.901Z,100477.09
2023-04-11T01:33:32.070Z,100475.25
2023-04-11T01:36:00.925Z,100479.72
2023-04-11T01:38:28.526Z,100486.78
2023-04-11T01:40:57.380Z,100488.59
2023-04-11T01:43:27.079Z,100479.78
2023-04-11T01:45:54.691Z,100476.50
2023-04-11T01:48:22.202Z,100483.38
2023-04-11T01:50:52.005Z,100482.44
2023-04-11T01:53:19.422Z,100480.66
2023-04-11T01:55:46.975Z,100483.16
2023-04-11T01:58:14.506Z,100483.09
2023-04-11T02:00:43.246Z,100483.09
2023-04-11T02:03:17.653Z,100484.94
2023-04-11T02:05:47.446Z,100482.34
2023-04-11T02:08:14.926Z,100481.41
2023-04-11T02:10:42.618Z,100478.97
2023-04-11T02:13:10.095Z,100478.03
2023-04-11T02:15:37.759Z,100474.63
2023-04-11T02:18:05.720Z,100468.63
2023-04-11T02:20:34.114Z,100472.00
2023-04-11T02:23:04.457Z,100468.22
2023-04-11T02:25:32.026Z,100466.44
2023-04-11T02:28:00.484Z,100474.81
2023-04-11T02:30:28.209Z,100478.22
2023-04-11T02:32:55.698Z,100480.78
2023-04-11T02:35:23.206Z,100485.09
2023-04-11T02:37:50.836Z,100471.19
2023-04-11T02:40:18.450Z,100478.47
2023-04-11T02:42:45.898Z,100468.63
2023-04-11T02:45:13.515Z,100470.06
2023-04-11T02:47:41.358Z,100468.00
2023-04-11T02:50:10.026Z,100473.66
2023-04-11T02:52:45.943Z,100471.66
2023-04-11T02:55:16.382Z,100472.31
2023-04-11T02:57:43.966Z,100478.19
2023-04-11T03:00:14.333Z,100460.72
2023-04-11T03:02:49.170Z,100460.78
2023-04-11T03:05:21.313Z,100459.66
2023-04-11T03:07:52.061Z,100460.91
2023-04-11T03:10:19.655Z,100461.56
2023-04-11T03:12:47.089Z,100470.00
2023-04-11T03:15:15.681Z,100465.53
2023-04-11T03:17:43.579Z,100465.44
2023-04-11T03:20:19.711Z,100468.97
2023-04-11T03:22:51.282Z,100466.41
2023-04-11T03:25:20.338Z,100459.44
2023-04-11T03:27:50.302Z,100466.34
2023-04-11T03:30:18.012Z,100460.16
2023-04-11T03:32:48.183Z,100459.38
2023-04-11T03:35:15.724Z,100457.69
2023-04-11T03:37:48.173Z,100462.81
2023-04-11T03:40:18.757Z,100459.44
2023-04-11T03:42:52.469Z,100455.19
2023-04-11T03:45:25.417Z,100454.50
2023-04-11T03:47:55.000Z,100459.75
2023-04-11T03:50:26.382Z,100452.25
2023-04-11T03:52:58.878Z,100453.53
2023-04-11T03:55:26.722Z,100444.94
2023-04-11T03:57:56.786Z,100456.47
2023-04-11T04:00:25.566Z,100452.31
2023-04-11T04:03:04.766Z,100455.25
2023-04-11T04:05:33.908Z,100455.25
2023-04-11T04:08:02.104Z,100449.44
2023-04-11T04:10:49.910Z,100446.22
2023-04-11T04:13:17.521Z,100457.63
2023-04-11T04:15:53.826Z,100452.78
2023-04-11T04:18:25.385Z,100453.19
2023-04-11T04:20:52.927Z,100450.03
2023-04-11T04:23:23.985Z,100446.13
2023-04-11T04:26:25.258Z,100449.72
2023-04-11T04:29:34.245Z,100464.00
2023-04-11T04:32:11.337Z,100449.13
2023-04-11T04:34:49.558Z,100455.09
2023-04-11T04:37:27.338Z,100458.13
2023-04-11T04:40:13.282Z,100445.50
2023-04-11T04:42:58.541Z,100443.09
2023-04-11T04:45:46.214Z,100437.22
2023-04-11T04:48:18.918Z,100442.06
2023-04-11T04:50:46.554Z,100446.06
2023-04-11T04:53:14.288Z,100447.19
2023-04-11T04:55:47.478Z,100436.41
2023-04-11T04:58:17.039Z,100435.13
2023-04-11T05:00:44.905Z,100441.09
2023-04-11T05:03:21.064Z,100437.09
2023-04-11T05:05:50.689Z,100432.41
2023-04-11T05:08:20.087Z,100429.41
2023-04-11T05:10:48.215Z,100427.84
2023-04-11T05:13:16.777Z,100430.56
2023-04-11T05:15:49.302Z,100430.88
2023-04-11T05:18:17.088Z,100422.47
2023-04-11T05:20:45.622Z,100419.25
2023-04-11T05:23:18.660Z,100417.94
2023-04-11T05:25:46.558Z,100410.28
2023-04-11T05:28:16.415Z,100408.03
2023-04-11T05:30:44.126Z,100404.03
2023-04-11T05:33:14.688Z,100411.72
2023-04-11T05:35:43.874Z,100407.25
2023-04-11T05:38:11.708Z,100403.13
2023-04-11T05:40:40.553Z,100409.28
2023-04-11T05:43:08.980Z,100402.25
2023-04-11T05:45:36.505Z,100407.47
2023-04-11T05:48:08.044Z,100407.25
2023-04-11T05:50:36.440Z,100405.47
2023-04-11T05:53:04.096Z,100405.34
2023-04-11T05:55:31.962Z,100404.25
2023-04-11T05:58:01.777Z,100396.34
2023-04-11T06:00:31.175Z,100408.41
2023-04-11T06:03:00.625Z,100399.94
2023-04-11T06:05:31.667Z,100392.91
2023-04-11T06:08:00.192Z,100398.38
2023-04-11T06:10:28.968Z,100396.03
2023-04-11T06:12:57.349Z,100386.09
2023-04-11T06:15:26.852Z,100384.09
2023-04-11T06:17:55.017Z,100390.56
2023-04-11T06:20:23.232Z,100391.72
2023-04-11T06:22:53.759Z,100399.75
2023-04-11T06:25:22.008Z,100392.50
2023-04-11T06:27:50.618Z,100392.91
2023-04-11T06:30:18.226Z,100383.69
2023-04-11T06:32:46.076Z,100383.53
2023-04-11T06:35:13.707Z,100404.06
2023-04-11T06:37:42.986Z,100395.66
2023-04-11T06:40:11.146Z,100379.97
2023-04-11T06:42:39.437Z,100393.13
2023-04-11T06:45:07.457Z,100391.22
2023-04-11T06:47:34.904Z,100382.91
2023-04-11T06:50:02.523Z,100383.28
2023-04-11T06:52:31.026Z,100376.66
2023-04-11T06:54:58.499Z,100383.88
2023-04-11T06:57:26.009Z,100375.03
2023-04-11T06:59:53.527Z,100371.91
2023-04-11T07:02:22.075Z,100373.19
2023-04-11T07:04:49.653Z,100379.25
2023-04-11T07:07:17.127Z,100363.72
2023-04-11T07:09:47.026Z,100368.38
2023-04-11T07:12:14.538Z,100364.66
2023-04-11T07:14:41.950Z,100372.81
2023-04-11T07:17:09.507Z,100371.16
2023-04-11T07:19:36.983Z,100361.66
2023-04-11T07:22:04.965Z,100355.59
2023-04-11T07:24:32.389Z,100356.50
2023-04-11T07:27:01.837Z,100343.53
2023-04-11T07:29:29.564Z,100345.28
2023-04-11T07:31:57.006Z,100351.41
2023-04-11T07:34:24.541Z,100351.41
2023-04-11T07:36:52.113Z,100345.28
2023-04-11T07:39:19.517Z,100346.16
2023-04-11T07:41:47.037Z,100337.28
2023-04-11T07:44:14.482Z,100337.22
2023-04-11T07:46:44.685Z,100343.13
2023-04-11T07:49:12.264Z,100339.69
2023-04-11T07:51:39.997Z,100332.84
2023-04-11T07:54:08.793Z,100330.25
2023-04-11T07:56:36.304Z,100321.44
2023-04-11T07:59:04.504Z,100325.34
2023-04-11T08:01:32.157Z,100323.00
2023-04-11T08:04:00.235Z,100317.34
2023-04-11T08:06:29.355Z,100314.38
2023-04-11T08:08:58.838Z,100310.44
2023-04-11T08:11:26.499Z,100302.25
2023-04-11T08:13:54.208Z,100307.69
2023-04-11T08:16:21.888Z,100305.25
2023-04-11T08:18:50.319Z,100294.84
2023-04-11T08:21:17.836Z,100295.50
2023-04-11T08:23:46.068Z,100299.97
2023-04-11T08:26:15.241Z,100282.06
2023-04-11T08:28:43.638Z,100293.44
2023-04-11T08:31:13.432Z,100288.91
2023-04-11T08:33:41.690Z,100288.97
2023-04-11T08:36:10.695Z,100282.34
2023-04-11T08:38:39.984Z,100287.25
2023-04-11T08:41:09.744Z,100281.09
2023-04-11T08:43:41.837Z,100285.66
2023-04-11T08:46:09.556Z,100269.50
2023-04-11T08:48:37.135Z,100262.25
2023-04-11T08:51:05.493Z,100268.94
2023-04-11T08:53:38.504Z,100268.84
2023-04-11T08:56:06.587Z,100262.78
2023-04-11T08:58:34.128Z,100253.19
2023-04-11T09:01:26.196Z,100257.22
2023-04-11T09:03:53.891Z,100250.88
2023-04-11T09:06:21.806Z,100247.66
2023-04-11T09:08:49.532Z,100241.63
2023-04-11T09:11:17.944Z,100249.28
2023-04-11T09:13:45.448Z,100246.22
2023-04-11T09:16:14.695Z,100240.69
2023-04-11T09:18:45.336Z,100237.69
2023-04-11T09:21:15.585Z,100237.06
2023-04-11T09:23:43.628Z,100239.50
2023-04-11T09:26:12.956Z,100221.91
2023-04-11T09:28:50.693Z,100226.78
2023-04-11T09:31:18.489Z,100217.41
2023-04-11T09:33:58.688Z,100211.94
2023-04-11T09:36:29.455Z,100221.47
2023-04-11T09:38:57.714Z,100221.09
2023-04-11T09:41:32.054Z,100211.19
2023-04-11T09:44:00.184Z,100208.81
2023-04-11T09:46:28.176Z,100204.53
2023-04-11T09:48:56.812Z,100204.53
2023-04-11T09:51:35.900Z,100193.53
2023-04-11T09:54:06.132Z,100192.16
2023-04-11T09:56:37.174Z,100198.84
2023-04-11T09:59:05.337Z,100189.91
2023-04-11T10:01:33.528Z,100184.88
2023-04-11T10:04:01.577Z,100176.69
2023-04-11T10:06:38.881Z,100186.22
2023-04-11T10:09:11.899Z,100173.59
2023-04-11T10:11:44.181Z,100159.69
2023-04-11T10:14:36.585Z,100165.34
2023-04-11T10:17:20.611Z,100159.50
2023-04-11T10:19:51.658Z,100157.56
2023-04-11T10:22:40.892Z,100151.84
2023-04-11T10:25:18.802Z,100155.31
2023-04-11T10:27:53.486Z,100143.88
2023-04-11T10:30:44.914Z,100146.47
2023-04-11T10:33:17.862Z,100146.66
2023-04-11T10:36:03.888Z,100143.59
2023-04-11T10:38:37.541Z,100142.22
2023-04-11T10:41:17.103Z,100142.16
2023-04-11T10:43:47.410Z,100146.19
2023-04-11T10:46:22.065Z,100139.94
2023-04-11T10:49:03.880Z,100133.28
2023-04-11T10:51:34.103Z,100129.19
2023-04-11T10:54:02.522Z,100127.66
2023-04-11T10:56:52.692Z,100126.69
2023-04-11T10:59:32.339Z,100119.84
2023-04-11T11:02:01.815Z,100122.25
2023-04-11T11:04:39.666Z,100115.72
2023-04-11T11:07:14.020Z,100103.69
2023-04-11T11:09:41.633Z,100107.69
2023-04-11T11:12:11.333Z,100110.84
2023-04-11T11:14:42.749Z,100102.13
2023-04-11T11:17:12.405Z,100101.00
2023-04-11T11:19:47.453Z,100103.81
2023-04-11T11:22:19.229Z,100088.50
2023-04-11T11:24:46.672Z,100076.06
2023-04-11T11:27:20.837Z,100083.53
2023-04-11T11:29:48.821Z,100072.03
2023-04-11T11:32:30.130Z,100067.91
2023-04-11T11:34:58.808Z,100061.94
2023-04-11T11:37:27.150Z,100066.56
2023-04-11T11:39:54.720Z,100055.19
2023-04-11T11:42:22.311Z,100049.06
2023-04-11T11:44:49.853Z,100059.44
2023-04-11T11:47:17.814Z,100052.41
2023-04-11T11:49:50.899Z,100066.81
2023-04-11T11:52:34.933Z,100054.47
2023-04-11T11:55:26.677Z,100058.22
2023-04-11T11:57:54.170Z,100044.28
2023-04-11T12:00:26.095Z,100056.09
2023-04-11T12:02:55.768Z,100051.16
2023-04-11T12:05:30.581Z,100048.72
2023-04-11T12:08:00.772Z,100039.38
2023-04-11T12:10:40.283Z,100040.34
2023-04-11T12:13:17.894Z,100038.66
2023-04-11T12:15:50.661Z,100035.22
2023-04-11T12:18:21.350Z,100037.78
2023-04-11T12:20:49.797Z,100025.63
2023-04-11T12:23:18.673Z,100032.56
2023-04-11T12:25:47.200Z,100018.22
2023-04-11T12:28:14.998Z,100010.69
2023-04-11T12:30:42.532Z,100003.75
2023-04-11T12:33:12.323Z,100005.94
2023-04-11T12:35:39.911Z,100002.66
2023-04-11T12:38:08.090Z,100008.31
2023-04-11T12:40:35.992Z,100002.94
2023-04-11T12:43:03.477Z,99995.88
2023-04-11T12:45:32.608Z,99997.09
2023-04-11T12:48:00.565Z,99992.63
2023-04-11T12:50:28.088Z,99986.66
2023-04-11T12:52:56.393Z,99987.88
2023-04-11T12:55:24.090Z,99983.88
2023-04-11T12:57:51.591Z,99987.06
2023-04-11T13:00:19.365Z,99974.25
2023-04-11T13:02:47.279Z,99981.66
2023-04-11T13:05:15.694Z,99971.28
2023-04-11T13:07:45.214Z,99974.25
2023-04-11T13:10:16.427Z,99977.50
2023-04-11T13:12:45.572Z,99982.31
2023-04-11T13:15:15.383Z,99976.75
2023-04-11T13:17:43.408Z,99978.94
2023-04-11T13:20:11.718Z,99975.56
2023-04-11T13:22:41.511Z,99975.53
2023-04-11T13:25:10.530Z,99971.84
2023-04-11T13:27:41.952Z,99965.69
2023-04-11T13:30:10.729Z,99971.44
2023-04-11T13:32:46.131Z,99969.38
2023-04-11T13:35:13.785Z,99968.72
2023-04-11T13:37:42.018Z,99965.75
2023-04-11T13:40:12.408Z,99970.41
2023-04-11T13:42:40.573Z,99967.13
2023-04-11T13:45:08.697Z,99968.16
2023-04-11T13:47:38.799Z,99974.31
2023-04-11T13:50:09.015Z,99972.53
2023-04-11T13:52:36.951Z,99976.03
2023-04-11T13:55:07.122Z,99977.72
2023-04-11T13:57:37.178Z,99969.00
2023-04-11T14:00:10.057Z,99968.03
2023-04-11T14:02:41.169Z,99967.09
2023-04-11T14:05:09.748Z,99977.41
2023-04-11T14:07:37.660Z,99973.03
2023-04-11T14:10:11.414Z,99968.66
2023-04-11T14:12:41.181Z,99967.69
2023-04-11T14:15:09.476Z,99978.84
2023-04-11T14:17:37.136Z,99967.50
2023-04-11T14:20:09.730Z,99977.00
2023-04-11T14:22:37.858Z,99964.78
2023-04-11T14:25:09.932Z,99971.66
2023-04-11T14:27:41.371Z,99968.06
2023-04-11T14:30:13.121Z,99964.41
2023-04-11T14:32:41.398Z,99964.22
2023-04-11T14:35:09.897Z,99964.97
2023-04-11T14:37:37.683Z,99961.38
2023-04-11T14:40:05.988Z,99952.53
2023-04-11T14:42:33.546Z,99955.09
2023-04-11T14:45:01.103Z,99942.03
2023-04-11T14:47:30.661Z,99949.84
2023-04-11T14:49:58.572Z,99951.63
2023-04-11T14:52:26.151Z,99946.44
2023-04-11T14:54:53.617Z,99946.38
2023-04-11T14:57:22.992Z,99951.59
2023-04-11T14:59:50.620Z,99943.00
2023-04-11T15:02:18.315Z,99940.31
2023-04-11T15:04:45.997Z,99941.13
2023-04-11T15:07:13.632Z,99940.13
2023-04-11T15:09:41.271Z,99938.28
2023-04-11T15:12:08.702Z,99941.66
2023-04-11T15:14:36.363Z,99942.41
2023-04-11T15:17:03.911Z,99942.28
2023-04-11T15:19:31.677Z,99933.50
2023-04-11T15:21:59.134Z,99937.72
2023-04-11T15:24:26.812Z,99946.41
2023-04-11T15:26:54.291Z,99939.34
2023-04-11T15:29:22.054Z,99937.56
2023-04-11T15:31:49.688Z,99946.19
2023-04-11T15:34:17.420Z,99940.00
2023-04-11T15:36:45.304Z,99936.44
2023-04-11T15:39:12.852Z,99939.88
2023-04-11T15:41:41.471Z,99945.84
2023-04-11T15:44:09.332Z,99945.72
2023-04-11T15:46:36.905Z,99942.16
2023-04-11T15:49:04.564Z,99942.88
2023-04-11T15:51:32.177Z,99947.97
2023-04-11T15:53:59.656Z,99940.00
2023-04-11T15:56:28.358Z,99938.28
2023-04-11T15:58:56.380Z,99939.84
2023-04-11T16:01:25.355Z,99939.75
2023-04-11T16:03:54.344Z,99943.91
2023-04-11T16:06:22.524Z,99932.56
2023-04-11T16:08:51.118Z,99937.69
2023-04-11T16:11:18.643Z,99946.22
2023-04-11T16:13:46.197Z,99937.44
2023-04-11T16:16:13.705Z,99939.06
2023-04-11T16:18:41.645Z,99939.78
2023-04-11T16:21:15.920Z,99951.03
2023-04-11T16:23:43.567Z,99942.09
2023-04-11T16:26:11.125Z,99947.28
2023-04-11T16:28:38.634Z,99955.03
2023-04-11T16:31:06.416Z,99945.41
2023-04-11T16:33:33.925Z,99953.25
2023-04-11T16:36:01.684Z,99952.38
2023-04-11T16:38:29.179Z,99949.63
2023-04-11T16:40:56.701Z,99946.09
2023-04-11T16:43:24.131Z,99958.19
2023-04-11T16:45:51.702Z,99957.22
2023-04-11T16:48:19.134Z,99958.03
2023-04-11T16:50:46.590Z,99956.19
2023-04-11T16:53:14.206Z,99965.53
2023-04-11T16:55:41.642Z,99974.19
2023-04-11T16:58:10.408Z,99964.66
2023-04-11T17:00:38.187Z,99971.38
2023-04-11T17:03:06.100Z,99960.19
2023-04-11T17:05:34.515Z,99958.53
2023-04-11T17:08:02.038Z,99964.31
2023-04-11T17:10:29.499Z,99965.03
2023-04-11T17:12:58.552Z,99975.44
2023-04-11T17:15:26.140Z,99971.00
2023-04-11T17:17:53.723Z,99970.84
2023-04-11T17:20:22.605Z,99975.94
2023-04-11T17:22:50.534Z,99967.19
2023-04-11T17:25:17.963Z,99974.06
2023-04-11T17:27:45.431Z,99977.38
2023-04-11T17:30:13.080Z,99980.03
2023-04-11T17:32:40.836Z,99979.19
2023-04-11T17:35:08.870Z,99973.09
2023-04-11T17:37:36.474Z,99978.19
2023-04-11T17:40:10.798Z,99981.63
2023-04-11T17:42:38.628Z,99969.31
2023-04-11T17:45:17.864Z,99981.41
2023-04-11T17:47:49.055Z,99973.53
2023-04-11T17:50:17.472Z,99978.59
2023-04-11T17:52:47.335Z,99987.28
2023-04-11T17:55:17.262Z,99986.38
2023-04-11T17:57:48.853Z,99975.91
2023-04-11T18:00:26.567Z,99985.31
2023-04-11T18:02:57.842Z,99975.81
2023-04-11T18:05:29.396Z,99978.28
2023-04-11T18:07:59.176Z,99978.28
2023-04-11T18:10:28.048Z,99972.09
2023-04-11T18:12:57.026Z,99981.56
2023-04-11T18:15:25.738Z,99978.88
2023-04-11T18:17:53.470Z,99982.38
2023-04-11T18:20:21.224Z,99971.09
2023-04-11T18:22:54.928Z,99979.59
2023-04-11T18:25:22.954Z,99972.53
2023-04-11T18:27:50.631Z,99973.28
2023-04-11T18:30:18.198Z,99976.63
2023-04-11T18:32:50.997Z,99976.59
2023-04-11T18:35:18.693Z,99973.09
2023-04-11T18:37:46.589Z,99972.09
2023-04-11T18:40:15.459Z,99973.78
2023-04-11T18:42:49.293Z,99965.94
2023-04-11T18:45:18.116Z,99972.75
2023-04-11T18:48:47.366Z,99974.50
2023-04-11T18:52:26.545Z,99971.00
2023-04-11T18:59:29.125Z,99970.56
2023-04-11T19:01:57.441Z,99964.31
2023-04-11T19:04:25.377Z,99968.53
2023-04-11T19:06:53.343Z,99966.66
2023-04-11T19:09:22.090Z,99969.22
2023-04-11T19:11:50.384Z,99967.34
2023-04-11T19:14:20.089Z,99963.69
2023-04-11T19:16:47.694Z,99961.03
2023-04-11T19:19:15.179Z,99957.50
2023-04-11T19:21:42.772Z,99959.19
2023-04-11T19:24:10.526Z,99956.50
2023-04-11T19:26:38.112Z,99950.38
2023-04-11T19:29:05.897Z,99957.19
2023-04-11T19:31:33.809Z,99959.75
2023-04-11T19:34:04.502Z,99957.16
2023-04-11T19:36:32.246Z,99959.59
2023-04-11T19:38:59.801Z,99952.59
2023-04-11T19:41:27.330Z,99955.13
2023-04-11T19:43:55.054Z,99965.34
2023-04-11T19:46:22.896Z,99958.25
2023-04-11T19:48:51.548Z,99964.25
2023-04-11T19:51:19.077Z,99964.25
2023-04-11T19:53:48.456Z,99966.75
2023-04-11T19:56:16.359Z,99964.97
2023-04-11T19:58:43.977Z,99963.97
2023-04-11T20:01:11.424Z,99960.44
2023-04-11T20:03:40.715Z,99965.56
2023-04-11T20:06:09.572Z,99972.47
2023-04-11T20:08:38.219Z,99960.22
2023-04-11T20:11:06.044Z,99967.94
2023-04-11T20:13:36.017Z,99976.66
2023-04-11T20:16:08.215Z,99974.75
2023-04-11T20:18:35.852Z,99972.97
2023-04-11T20:21:06.274Z,99973.66
2023-04-11T20:23:35.486Z,99971.97
2023-04-11T20:26:03.005Z,99973.59
2023-04-11T20:28:30.610Z,99966.50
2023-04-11T20:30:59.353Z,99975.03
2023-04-11T20:33:27.848Z,99984.44
2023-04-11T20:35:58.164Z,99980.06
2023-04-11T20:38:27.496Z,99987.81
2023-04-11T20:40:55.028Z,99982.59
2023-04-11T20:43:25.349Z,99979.09
2023-04-11T20:45:53.972Z,99983.41
2023-04-11T20:48:26.082Z,99981.47
2023-04-11T20:50:55.883Z,99984.03
2023-04-11T20:53:23.382Z,99985.56
2023-04-11T20:55:51.087Z,99988.94
2023-04-11T20:58:21.208Z,99985.31
2023-04-11T21:00:48.748Z,99989.59
2023-04-11T21:03:16.704Z,99986.09
2023-04-11T21:05:46.673Z,99987.66
2023-04-11T21:08:14.378Z,99990.28
2023-04-11T21:10:41.998Z,99980.53
2023-04-11T21:13:09.836Z,99986.50
2023-04-11T21:15:37.338Z,99980.50
2023-04-11T21:18:07.415Z,99995.22
2023-04-11T21:20:35.231Z,99980.44
2023-04-11T21:23:03.019Z,99983.06
2023-04-11T21:25:30.957Z,99983.88
2023-04-11T21:27:58.528Z,99990.78
2023-04-11T21:30:26.092Z,99984.75
2023-04-11T21:32:53.824Z,99983.09
2023-04-11T21:35:21.369Z,99981.28
2023-04-11T21:37:49.331Z,99983.09
2023-04-11T21:40:16.857Z,99981.28
2023-04-11T21:42:44.467Z,99986.50
2023-04-11T21:45:11.971Z,99978.69
2023-04-11T21:47:39.528Z,99992.53
2023-04-11T21:50:07.847Z,99996.72
2023-04-11T21:52:35.396Z,99995.66
2023-04-11T21:55:03.026Z,99996.31
2023-04-11T21:57:33.061Z,99985.84
2023-04-11T22:00:00.704Z,99999.66
2023-04-11T22:02:28.286Z,99987.16
2023-04-11T22:05:06.217Z,99993.13
2023-04-11T22:07:48.308Z,99993.75
2023-04-11T22:10:22.623Z,99995.28
2023-04-11T22:12:53.965Z,99993.38
2023-04-11T22:15:21.923Z,99987.06
2023-04-11T22:17:50.988Z,99994.06
2023-04-11T22:20:20.076Z,99982.75
2023-04-11T22:22:48.085Z,99984.59
2023-04-11T22:25:18.397Z,99980.31
2023-04-11T22:27:45.881Z,99976.84
2023-04-11T22:30:14.778Z,99980.31
2023-04-11T22:32:42.296Z,99992.25
2023-04-11T22:35:10.489Z,99990.47
2023-04-11T22:37:37.984Z,99986.06
2023-04-11T22:40:06.358Z,99984.31
2023-04-11T22:42:34.145Z,99979.06
2023-04-11T22:45:01.653Z,99979.91
2023-04-11T22:47:32.760Z,99976.47
2023-04-11T22:50:01.633Z,99975.44
2023-04-11T22:52:30.329Z,99978.03
2023-04-11T22:54:57.925Z,99983.13
2023-04-11T22:57:25.392Z,99977.00
2023-04-11T22:59:52.917Z,99976.22
2023-04-11T23:02:20.443Z,99975.44
2023-04-11T23:04:48.003Z,99965.88
2023-04-11T23:07:16.987Z,99974.56
2023-04-11T23:09:44.930Z,99973.69
2023-04-11T23:12:12.958Z,99974.47
2023-04-11T23:14:40.660Z,99971.78
2023-04-11T23:17:08.312Z,99966.47
2023-04-11T23:19:37.000Z,99971.38
2023-04-11T23:22:05.131Z,99972.03
2023-04-11T23:24:32.710Z,99962.47
2023-04-11T23:27:00.212Z,99966.44
2023-04-11T23:29:28.082Z,99975.75
2023-04-11T23:31:55.493Z,99972.03
2023-04-11T23:34:23.001Z,99977.06
2023-04-11T23:36:50.471Z,99976.19
2023-04-11T23:39:17.950Z,99982.25
2023-04-11T23:41:46.028Z,99975.31
2023-04-11T23:44:14.099Z,99968.34
2023-04-11T23:46:41.894Z,99975.25
2023-04-11T23:49:09.598Z,99982.00
2023-04-11T23:51:37.101Z,99980.22
2023-04-11T23:54:07.227Z,99978.28
2023-04-11T23:56:34.707Z,99973.78
2023-04-11T23:59:02.275Z,99977.16
